This is the latest recevied weather packets stored in our database for station/object 9M8ZAL-13. If no packets are shown the sender has not sent any weather packets the latest 1 day(s).
| Time | Temp. | Humidity | Pressure | Rain* | Wind** | Luminosity | Snow |
|---|---|---|---|---|---|---|---|
| 1778099030 | 27.22° C | - | 1007.4 hPa | - | - | 1000 W/m² | - |
| 1778098430 | 27.78° C | - | 1007.3 hPa | - | - | 1000 W/m² | - |
| 1778097830 | 27.78° C | - | 1007.5 hPa | - | - | 1000 W/m² | - |
| 1778096030 | 27.22° C | - | 1007.4 hPa | - | - | 1000 W/m² | - |
| 1778093630 | 27.22° C | - | 1007.9 hPa | - | - | 1000 W/m² | - |
| 1778093030 | 27.22° C | - | 1007.9 hPa | - | - | 1000 W/m² | - |
| 1778092430 | 27.22° C | - | 1008 hPa | - | - | 1000 W/m² | - |
| 1778091830 | 27.78° C | - | 1008.1 hPa | - | - | 1000 W/m² | - |
| 1778090630 | 27.22° C | - | 1007.9 hPa | - | - | 1000 W/m² | - |
| 1778090030 | 27.78° C | - | 1008 hPa | - | - | 1000 W/m² | - |
| 1778089430 | 27.78° C | - | 1008.4 hPa | - | - | 1000 W/m² | - |
| 1778078629 | 28.33° C | - | 1009.4 hPa | - | - | 1000 W/m² | - |
| 1778078030 | 28.33° C | - | 1009.2 hPa | - | - | 1000 W/m² | - |
| 1778077429 | 28.33° C | - | 1008.8 hPa | - | - | 1000 W/m² | - |
| 1778076829 | 28.89° C | - | 1008.9 hPa | - | - | 1000 W/m² | - |
| 1778076229 | 28.89° C | - | 1008.6 hPa | - | - | 1000 W/m² | - |
| 1778075629 | 28.33° C | - | 1008.5 hPa | - | - | 1000 W/m² | - |
| 1778075029 | 28.33° C | - | 1008.3 hPa | - | - | 1000 W/m² | - |
| 1778071429 | 29.44° C | - | 1007.8 hPa | - | - | 1000 W/m² | - |
| 1778069029 | 30° C | - | 1007.4 hPa | - | - | 1000 W/m² | - |
| 1778063028 | 32.22° C | - | 1005.8 hPa | - | - | 1000 W/m² | - |
| 1778060028 | 33.33° C | - | 1004.8 hPa | - | - | 1003 W/m² | - |
| 1778059428 | 33.89° C | - | 1004.5 hPa | - | - | 1003 W/m² | - |
| 1778058228 | 33.89° C | - | 1004.4 hPa | - | - | 1002 W/m² | - |
| 1778057628 | 34.44° C | - | 1004.4 hPa | - | - | 1002 W/m² | - |
* Rain since midnight (hover to see other rain measurements)
** Current wind speed in m/s (hover to see current wind gust speed)